Time;durP1;ratioP1;P1;durP2;ratioP2;P2;SDS_P1;SDS_P2;PMS_P1;PMS_P2;Temp;Humidity;BMP_temperature;BMP_pressure;BME280_temperature;BME280_humidity;BME280_pressure;Samples;Min_cycle;Max_cycle;Signal;HPM_P1;HPM_P2
2021/12/30 00:02:19;;;;;;;38.10;20.07;;;;;;;3.50;97.17;100007.67;1739962;82;21500;-75
2021/12/30 00:04:46;;;;;;;41.23;21.37;;;;;;;3.53;97.22;100012.81;1731030;82;21038;-75
2021/12/30 00:07:13;;;;;;;37.97;20.30;;;;;;;3.56;97.21;100007.14;1731128;82;20999;-75
2021/12/30 00:09:40;;;;;;;31.27;18.00;;;;;;;3.62;97.41;100007.48;1731043;82;21275;-75
2021/12/30 00:12:09;;;;;;;24.53;16.27;;;;;;;3.62;96.90;100006.63;1735349;82;21528;-79
2021/12/30 00:14:37;;;;;;;23.47;15.70;;;;;;;3.59;96.44;100011.42;1742806;82;21111;-76
2021/12/30 00:17:04;;;;;;;24.83;15.23;;;;;;;3.50;95.87;100012.41;1744034;82;21040;-76
2021/12/30 00:19:31;;;;;;;24.23;15.07;;;;;;;3.46;95.75;100022.83;1742283;82;21081;-75
2021/12/30 00:21:58;;;;;;;21.90;14.50;;;;;;;3.44;95.77;100022.88;1736669;82;20995;-79
2021/12/30 00:24:25;;;;;;;22.40;14.57;;;;;;;3.44;95.88;100019.43;1736743;82;21136;-75
2021/12/30 00:26:53;;;;;;;23.63;15.53;;;;;;;3.45;96.02;100009.03;1736595;82;22076;-75
2021/12/30 00:29:20;;;;;;;20.87;14.13;;;;;;;3.49;96.33;100007.23;1737278;82;21063;-75
2021/12/30 00:31:47;;;;;;;24.27;15.30;;;;;;;3.48;96.23;100000.36;1743789;82;21039;-79
2021/12/30 00:34:14;;;;;;;22.00;14.07;;;;;;;3.47;96.15;99998.21;1743712;82;21028;-75
2021/12/30 00:36:42;;;;;;;22.20;14.93;;;;;;;3.45;96.05;100002.55;1743899;82;21131;-75
2021/12/30 00:39:09;;;;;;;24.03;14.43;;;;;;;3.43;95.99;100006.89;1741915;82;21022;-75
2021/12/30 00:41:36;;;;;;;21.63;14.27;;;;;;;3.43;95.98;99999.56;1731385;82;20994;-75
2021/12/30 00:44:04;;;;;;;22.10;14.83;;;;;;;3.40;95.93;99996.58;1731060;82;21626;-75
2021/12/30 00:46:31;;;;;;;24.53;14.30;;;;;;;3.38;95.96;99995.77;1743575;82;21580;-77
2021/12/30 00:48:58;;;;;;;22.37;15.03;;;;;;;3.39;96.13;99993.58;1744079;82;21115;-75
2021/12/30 00:51:25;;;;;;;21.70;14.47;;;;;;;3.39;96.13;99995.31;1719348;82;21031;-75
2021/12/30 00:53:52;;;;;;;23.80;15.07;;;;;;;3.37;96.03;99995.33;1706821;82;21545;-75
2021/12/30 00:56:19;;;;;;;21.70;14.00;;;;;;;3.37;96.03;99997.06;1744229;82;21040;-75
2021/12/30 00:58:46;;;;;;;22.13;14.60;;;;;;;3.36;96.14;100002.69;1744028;82;21067;-75
2021/12/30 01:01:13;;;;;;;24.33;14.37;;;;;;;3.37;96.08;100006.13;1740198;82;21141;-75
2021/12/30 01:03:41;;;;;;;25.00;15.57;;;;;;;3.35;96.17;100008.31;1736812;82;20995;-75
2021/12/30 01:06:08;;;;;;;21.90;14.60;;;;;;;3.35;96.25;100007.02;1736555;82;20933;-75
2021/12/30 01:08:35;;;;;;;23.77;14.37;;;;;;;3.38;96.32;100020.78;1736936;81;21576;-80
2021/12/30 01:11:06;;;;;;;29.57;17.27;;;;;;;3.39;96.27;100020.78;1755554;81;21034;-75
2021/12/30 01:13:32;;;;;;;32.27;19.00;;;;;;;3.42;96.55;100027.20;1744527;81;21531;-75
2021/12/30 01:16:01;;;;;;;35.07;18.83;;;;;;;3.46;96.74;100028.86;1739359;81;21030;-78
2021/12/30 01:18:53;;;;;;;30.03;17.10;;;;;;;3.48;96.53;100029.70;1739624;82;21022;-75
2021/12/30 01:21:11;;;;;;;33.13;19.50;;;;;;;3.47;96.24;100027.16;1736808;82;21033;-75
2021/12/30 01:23:43;;;;;;;33.83;19.90;;;;;;;3.45;96.28;100037.53;1742968;81;21078;-75
2021/12/30 01:26:10;;;;;;;32.90;19.00;;;;;;;3.48;96.51;100034.04;1739430;82;21464;-75
2021/12/30 01:28:39;;;;;;;35.07;17.43;;;;;;;3.49;96.47;100043.10;1739538;82;21045;-75
2021/12/30 01:31:07;;;;;;;30.03;18.70;;;;;;;3.48;96.18;100037.48;1750802;81;20998;-75
2021/12/30 01:33:34;;;;;;;29.60;18.33;;;;;;;3.46;96.08;100033.20;1743401;81;21050;-75
2021/12/30 01:36:01;;;;;;;33.50;20.10;;;;;;;3.45;96.02;100044.45;1736529;82;21105;-75
2021/12/30 01:38:28;;;;;;;31.87;19.30;;;;;;;3.44;95.99;100053.96;1753656;81;21273;-75
2021/12/30 01:40:59;;;;;;;30.67;18.80;;;;;;;3.44;95.92;100045.34;1759805;81;21046;-75
2021/12/30 01:43:24;;;;;;;33.43;19.97;;;;;;;3.42;95.89;100048.38;1757452;81;21055;-76
2021/12/30 01:45:51;;;;;;;31.73;19.20;;;;;;;3.42;95.90;100056.16;1715741;81;21157;-75
2021/12/30 01:48:18;;;;;;;33.70;19.10;;;;;;;3.43;96.16;100054.82;1732306;81;21056;-78
2021/12/30 01:50:45;;;;;;;29.27;18.77;;;;;;;3.45;96.23;100058.25;1720939;81;21232;-77
2021/12/30 01:53:13;;;;;;;32.10;19.83;;;;;;;3.39;95.60;100060.94;1703614;84;21090;-75
2021/12/30 01:55:42;;;;;;;31.33;18.20;;;;;;;3.34;95.74;100067.46;1703773;84;21460;-74
2021/12/30 01:58:11;;;;;;;33.70;20.10;;;;;;;3.33;95.77;100070.09;1737867;81;21035;-75
2021/12/30 02:00:43;;;;;;;33.93;19.87;;;;;;;3.33;95.87;100058.43;1747713;80;21007;-75
2021/12/30 02:03:11;;;;;;;30.63;19.47;;;;;;;3.31;95.81;100058.44;1751458;81;21128;-79
2021/12/30 02:05:40;;;;;;;27.13;17.43;;;;;;;3.31;95.99;100059.73;1747410;81;20987;-79
2021/12/30 02:08:11;;;;;;;26.40;16.93;;;;;;;3.31;95.88;100062.77;1705800;84;21586;-75
2021/12/30 02:10:39;;;;;;;;;;;;;;;3.30;95.94;100072.28;1709264;83;21024;-75
2021/12/30 02:13:07;;;;;;;117.43;40.80;;;;;;;3.28;96.07;100062.36;1694487;84;21410;-75
2021/12/30 02:15:34;;;;;;;120.13;45.03;;;;;;;3.34;96.57;100071.34;1676802;84;21973;-75
2021/12/30 02:18:02;;;;;;;78.33;32.07;;;;;;;3.39;96.86;100070.00;1706631;84;21081;-79
2021/12/30 02:20:56;;;;;;;49.17;24.17;;;;;;;3.41;96.87;100066.96;1700041;84;21030;-79
2021/12/30 02:23:30;;;;;;;27.00;16.53;;;;;;;3.41;96.76;100073.44;1703714;84;21051;-75
2021/12/30 02:26:02;;;;;;;29.10;17.70;;;;;;;3.48;97.15;100073.76;1703393;84;21097;-74
2021/12/30 02:28:32;;;;;;;31.83;18.47;;;;;;;3.51;97.19;100067.68;1701148;84;21215;-75
2021/12/30 02:31:04;;;;;;;30.13;18.60;;;;;;;3.52;97.19;100075.45;1701216;84;21034;-74
2021/12/30 02:33:31;;;;;;;28.37;17.20;;;;;;;3.52;97.06;100072.86;1703609;84;21609;-76
2021/12/30 02:35:58;;;;;;;33.30;19.93;;;;;;;3.54;97.06;100071.52;1699998;84;21010;-74
2021/12/30 02:38:26;;;;;;;29.57;18.53;;;;;;;3.54;96.93;100072.38;1700208;84;21116;-75
2021/12/30 02:40:58;;;;;;;28.23;17.30;;;;;;;3.52;96.85;100077.16;1698435;84;21580;-74
2021/12/30 02:43:29;;;;;;;29.13;16.57;;;;;;;3.53;96.85;100084.92;1703715;84;21487;-75
2021/12/30 02:45:59;;;;;;;23.83;15.00;;;;;;;3.55;96.90;100080.59;1702171;84;21065;-79
2021/12/30 02:48:31;;;;;;;23.45;14.18;;;;;;;3.54;96.75;100068.48;1700250;84;21009;-77
2021/12/30 02:51:02;;;;;;;21.00;13.60;;;;;;;3.54;96.73;100067.19;1701226;83;21481;-75
2021/12/30 02:53:29;;;;;;;21.00;13.87;;;;;;;3.52;96.58;100068.97;1703710;84;21164;-79
2021/12/30 02:55:57;;;;;;;21.40;12.90;;;;;;;3.52;96.60;100078.45;1704068;84;21055;-75
2021/12/30 02:58:26;;;;;;;21.50;12.77;;;;;;;3.52;96.67;100069.38;1703453;84;21067;-75
2021/12/30 03:01:11;;;;;;;21.90;13.13;;;;;;;3.55;96.67;100061.59;1702981;84;21059;-76
2021/12/30 03:03:38;;;;;;;19.07;12.93;;;;;;;3.54;96.60;100064.59;1703597;84;21095;-75
2021/12/30 03:06:09;;;;;;;21.27;12.83;;;;;;;3.51;96.44;100071.13;1703318;84;21567;-75
2021/12/30 03:08:37;;;;;;;21.37;13.13;;;;;;;3.50;96.37;100073.75;1703590;84;21004;-75
2021/12/30 03:11:05;;;;;;;18.20;12.23;;;;;;;3.48;96.39;100070.31;1697031;84;21118;-76
2021/12/30 03:13:34;;;;;;;20.13;12.60;;;;;;;3.48;96.45;100076.34;1695426;84;21074;-75
2021/12/30 03:16:06;;;;;;;17.70;12.03;;;;;;;3.49;96.46;100062.95;1694179;84;21101;-76
2021/12/30 03:18:36;;;;;;;17.50;12.20;;;;;;;3.50;96.43;100075.05;1689737;84;21209;-75
2021/12/30 03:21:07;;;;;;;17.65;11.83;;;;;;;3.47;96.24;100083.72;1690283;84;21069;-77
2021/12/30 03:23:34;;;;;;;16.87;11.33;;;;;;;3.49;96.41;100086.27;1691150;84;21072;-76
2021/12/30 03:26:04;;;;;;;17.00;11.13;;;;;;;3.50;96.43;100090.15;1690891;84;21537;-75
2021/12/30 03:28:32;;;;;;;21.27;11.60;;;;;;;3.50;96.31;100087.55;1690678;84;21522;-75
2021/12/30 03:31:00;;;;;;;17.30;10.70;;;;;;;3.46;96.02;100085.87;1690043;84;21135;-75
2021/12/30 03:33:29;;;;;;;19.57;12.00;;;;;;;3.42;95.95;100080.32;1691107;84;21000;-75
2021/12/30 03:36:00;;;;;;;16.17;10.63;;;;;;;3.43;96.06;100083.32;1668611;86;21049;-76
2021/12/30 03:38:29;;;;;;;18.33;10.73;;;;;;;3.44;96.03;100098.45;1668721;86;21065;-75
2021/12/30 03:40:58;;;;;;;17.93;10.83;;;;;;;3.41;95.95;100099.34;1682042;84;22086;-75
2021/12/30 03:43:25;;;;;;;17.67;11.30;;;;;;;3.37;95.79;100095.51;1690142;84;21112;-75
2021/12/30 03:45:53;;;;;;;18.73;11.37;;;;;;;3.34;95.78;100098.55;1689852;84;21031;-75
2021/12/30 03:48:23;;;;;;;16.43;10.50;;;;;;;3.30;95.66;100083.94;1690063;84;21066;-79
2021/12/30 03:50:51;;;;;;;19.65;12.15;;;;;;;3.28;95.63;100074.47;1690729;84;21015;-79
2021/12/30 03:53:18;;;;;;;18.77;11.43;;;;;;;3.19;95.14;100083.20;1690021;84;21062;-75
2021/12/30 03:55:48;;;;;;;17.83;11.57;;;;;;;3.10;95.02;100093.66;1689847;84;21141;-75
2021/12/30 03:58:15;;;;;;;18.10;11.43;;;;;;;3.03;94.99;100099.80;1690896;84;21071;-75
2021/12/30 04:00:43;;;;;;;17.43;10.73;;;;;;;3.00;95.20;100097.23;1689952;84;21014;-75
2021/12/30 04:03:10;;;;;;;16.30;10.47;;;;;;;3.01;95.35;100095.91;1692220;84;21071;-75
2021/12/30 04:05:37;;;;;;;15.77;10.57;;;;;;;2.97;95.32;100099.42;1690878;84;21059;-79
2021/12/30 04:08:07;;;;;;;17.43;10.73;;;;;;;2.96;95.32;100108.48;1690956;84;22229;-75
2021/12/30 04:10:35;;;;;;;18.40;12.03;;;;;;;2.99;95.69;100117.52;1690651;83;21058;-76
2021/12/30 04:13:04;;;;;;;17.95;11.63;;;;;;;2.99;95.79;100109.30;1690428;84;21538;-75
2021/12/30 04:15:31;;;;;;;19.50;11.97;;;;;;;2.96;95.39;100115.81;1687497;84;21075;-75
2021/12/30 04:17:58;;;;;;;16.10;10.53;;;;;;;2.95;95.60;100115.84;1665555;86;21036;-74
2021/12/30 04:20:25;;;;;;;18.83;11.63;;;;;;;2.96;95.71;100115.81;1669567;84;21153;-75
2021/12/30 04:22:52;;;;;;;18.77;11.57;;;;;;;2.99;95.99;100108.45;1690297;84;21010;-75
2021/12/30 04:25:19;;;;;;;18.80;11.93;;;;;;;3.04;96.34;100115.73;1690313;84;21109;-75
2021/12/30 04:27:46;;;;;;;18.20;11.23;;;;;;;3.08;96.42;100112.26;1679397;84;21043;-75
2021/12/30 04:30:15;;;;;;;19.50;11.87;;;;;;;3.11;96.62;100110.92;1670318;84;21506;-77
2021/12/30 04:32:45;;;;;;;17.83;11.10;;;;;;;3.16;96.49;100111.73;1699547;84;21150;-75
2021/12/30 04:35:13;;;;;;;19.23;11.13;;;;;;;3.17;96.49;100116.03;1700847;84;21458;-78
2021/12/30 04:37:41;;;;;;;17.07;10.93;;;;;;;3.19;96.45;100123.77;1700544;83;21064;-75
2021/12/30 04:40:11;;;;;;;17.80;12.23;;;;;;;3.21;96.48;100124.61;1700650;84;21016;-75
2021/12/30 04:42:38;;;;;;;18.30;11.23;;;;;;;3.21;96.35;100122.88;1700566;84;21031;-75
2021/12/30 04:45:06;;;;;;;19.53;11.40;;;;;;;3.19;96.14;100125.94;1707405;83;21943;-75
2021/12/30 04:47:33;;;;;;;22.30;13.43;;;;;;;3.20;96.28;100130.23;1700850;83;21004;-75
2021/12/30 04:50:00;;;;;;;21.57;12.77;;;;;;;3.20;96.30;100138.00;1700522;84;21060;-75
2021/12/30 04:52:28;;;;;;;17.70;12.47;;;;;;;3.22;96.33;100150.51;1694162;83;21063;-76
2021/12/30 04:54:55;;;;;;;22.27;14.10;;;;;;;3.22;96.19;100158.28;1694039;84;21647;-79
2021/12/30 04:57:21;;;;;;;20.00;13.17;;;;;;;3.21;96.22;100156.55;1699065;83;21080;-76
2021/12/30 04:59:49;;;;;;;17.40;12.23;;;;;;;3.22;96.24;100158.28;1715497;83;22260;-76
2021/12/30 05:02:16;;;;;;;18.83;12.77;;;;;;;3.22;96.24;100155.69;1687234;83;21043;-76
2021/12/30 05:04:43;;;;;;;19.83;13.07;;;;;;;3.23;96.28;100163.02;1718677;83;21051;-79
2021/12/30 05:07:10;;;;;;;20.13;11.73;;;;;;;3.22;96.18;100171.67;1706938;83;21047;-75
2021/12/30 05:09:37;;;;;;;21.50;11.83;;;;;;;3.22;96.25;100166.05;1693960;84;21140;-76
2021/12/30 05:12:05;;;;;;;19.33;12.37;;;;;;;3.23;96.31;100169.05;1688302;84;20978;-76
2021/12/30 05:14:32;;;;;;;20.83;11.87;;;;;;;3.22;96.17;100167.34;1694423;84;20999;-75
2021/12/30 05:17:03;;;;;;;19.23;11.83;;;;;;;3.21;96.28;100159.58;1670020;85;21547;-75
2021/12/30 05:19:28;;;;;;;17.57;11.23;;;;;;;3.20;96.29;100158.73;1694007;84;21030;-76
2021/12/30 05:21:55;;;;;;;19.67;11.50;;;;;;;3.20;96.30;100160.46;1694512;84;21752;-75
2021/12/30 05:24:22;;;;;;;22.37;12.60;;;;;;;3.19;96.39;100159.61;1694259;84;21534;-78
2021/12/30 05:26:49;;;;;;;18.13;11.87;;;;;;;3.19;96.41;100155.73;1694457;84;21058;-76
2021/12/30 05:29:16;;;;;;;22.17;12.37;;;;;;;3.19;96.51;100160.02;1694236;84;21106;-76
2021/12/30 05:31:43;;;;;;;19.20;12.33;;;;;;;3.18;96.55;100157.88;1694578;84;21587;-75
2021/12/30 05:34:10;;;;;;;19.70;12.33;;;;;;;3.19;96.61;100164.79;1669766;85;21802;-76
2021/12/30 05:36:37;;;;;;;20.70;12.13;;;;;;;3.20;96.70;100163.91;1694157;84;21067;-79
2021/12/30 05:39:04;;;;;;;17.77;12.30;;;;;;;3.21;96.73;100154.39;1670010;86;21064;-76
2021/12/30 05:41:31;;;;;;;19.17;11.73;;;;;;;3.23;96.86;100157.84;1694443;84;21035;-76
2021/12/30 05:43:59;;;;;;;18.23;11.93;;;;;;;3.22;96.84;100171.23;1669467;85;21023;-79
2021/12/30 05:46:28;;;;;;;18.57;11.93;;;;;;;3.22;96.78;100164.75;1729128;83;21132;-76
2021/12/30 05:48:54;;;;;;;18.83;11.67;;;;;;;3.21;96.75;100160.42;1729085;83;21027;-76
2021/12/30 05:51:21;;;;;;;19.33;11.60;;;;;;;3.20;96.75;100153.55;1728958;83;21615;-76
2021/12/30 05:53:49;;;;;;;20.67;12.30;;;;;;;3.20;96.89;100162.61;1729287;83;21050;-76
2021/12/30 05:56:15;;;;;;;16.93;11.80;;;;;;;3.22;97.00;100159.58;1720910;83;21084;-76
2021/12/30 05:58:43;;;;;;;20.60;11.67;;;;;;;3.23;97.05;100166.45;1697958;84;21153;-81
2021/12/30 06:01:10;;;;;;;20.10;11.67;;;;;;;3.24;96.99;100166.02;1682791;85;21067;-76
2021/12/30 06:03:37;;;;;;;16.13;11.00;;;;;;;3.27;97.13;100175.05;1682159;85;21581;-76
2021/12/30 06:06:04;;;;;;;16.70;11.60;;;;;;;3.28;97.30;100178.92;1689254;84;21055;-76
2021/12/30 06:08:31;;;;;;;19.23;12.30;;;;;;;3.31;97.32;100173.71;1694407;84;21047;-77
2021/12/30 06:10:58;;;;;;;20.53;12.60;;;;;;;3.34;97.26;100174.11;1670169;85;21143;-79
2021/12/30 06:13:25;;;;;;;21.93;12.93;;;;;;;3.30;97.13;100170.71;1676630;85;21553;-76
2021/12/30 06:15:52;;;;;;;25.47;13.73;;;;;;;3.31;97.17;100176.30;1705947;84;21512;-75
2021/12/30 06:18:19;;;;;;;18.57;12.43;;;;;;;3.31;97.15;100180.19;1698422;84;21020;-77
2021/12/30 06:20:46;;;;;;;22.50;12.47;;;;;;;3.30;97.13;100181.07;1698699;82;21520;-80
2021/12/30 06:23:13;;;;;;;19.13;12.23;;;;;;;3.31;97.14;100185.81;1676153;85;21948;-76
2021/12/30 06:25:40;;;;;;;18.53;12.87;;;;;;;3.30;97.14;100181.52;1651579;85;20909;-81
2021/12/30 06:28:08;;;;;;;18.80;12.27;;;;;;;3.30;97.18;100181.52;1676202;85;21063;-77
2021/12/30 06:30:34;;;;;;;17.10;11.23;;;;;;;3.29;97.15;100192.73;1691183;84;21068;-75
2021/12/30 06:33:01;;;;;;;19.07;11.10;;;;;;;3.26;97.18;100194.91;1667788;85;21092;-81
2021/12/30 06:35:32;;;;;;;16.43;11.10;;;;;;;3.27;97.30;100187.58;1677901;84;21114;-82
2021/12/30 06:37:58;;;;;;;15.00;10.50;;;;;;;3.28;97.36;100198.36;1714157;83;21038;-83
2021/12/30 06:40:24;;;;;;;18.77;11.57;;;;;;;3.27;97.32;100204.42;1686738;84;21046;-85
2021/12/30 06:42:51;;;;;;;16.07;11.77;;;;;;;3.25;97.27;100208.75;1694849;84;21122;-84
2021/12/30 06:45:19;;;;;;;15.43;11.57;;;;;;;3.23;97.28;100201.87;1680564;84;21066;-85
2021/12/30 06:47:46;;;;;;;15.67;10.87;;;;;;;3.21;97.24;100200.58;1704146;83;21198;-80
2021/12/30 06:50:16;;;;;;;15.50;11.33;;;;;;;3.22;97.40;100206.64;1702347;83;21035;-80
2021/12/30 06:52:47;;;;;;;15.03;10.82;;;;;;;3.22;97.49;100203.61;1705404;83;21119;-79
2021/12/30 06:55:15;;;;;;;17.23;12.00;;;;;;;3.22;97.46;100202.75;1706677;84;22130;-80
2021/12/30 06:57:43;;;;;;;17.27;11.80;;;;;;;3.23;97.62;100201.42;1706272;84;21066;-80
2021/12/30 07:00:12;;;;;;;16.30;10.90;;;;;;;3.26;97.78;100213.05;1706697;84;21129;-80
2021/12/30 07:02:42;;;;;;;16.57;11.27;;;;;;;3.27;97.81;100217.38;1706326;84;21031;-79
2021/12/30 07:05:11;;;;;;;13.93;10.25;;;;;;;3.29;97.89;100223.81;1699804;84;21047;-78
2021/12/30 07:07:38;;;;;;;14.80;11.00;;;;;;;3.31;97.95;100214.30;1706188;83;21063;-78
2021/12/30 07:10:07;;;;;;;15.23;10.60;;;;;;;3.30;97.79;100213.45;1705095;84;21034;-80
2021/12/30 07:12:36;;;;;;;15.33;10.67;;;;;;;3.30;97.78;100219.08;1702313;83;21143;-82
2021/12/30 07:15:04;;;;;;;16.87;10.80;;;;;;;3.30;97.86;100213.45;1698437;84;21075;-78
2021/12/30 07:17:32;;;;;;;14.10;11.13;;;;;;;3.31;97.99;100217.75;1696935;83;21063;-80
2021/12/30 07:19:58;;;;;;;18.83;11.57;;;;;;;3.33;98.00;100217.75;1697878;83;20988;-75
2021/12/30 07:22:25;;;;;;;17.67;11.37;;;;;;;3.36;98.16;100220.30;1679980;85;21581;-75
2021/12/30 07:24:56;;;;;;;16.83;12.30;;;;;;;3.39;98.18;100224.59;1667529;84;21156;-78
2021/12/30 07:27:23;;;;;;;18.70;13.17;;;;;;;3.41;98.24;100229.30;1698380;84;21063;-77
2021/12/30 07:29:50;;;;;;;17.40;12.93;;;;;;;3.43;98.25;100235.33;1693262;83;21075;-77
2021/12/30 07:32:18;;;;;;;19.47;13.47;;;;;;;3.46;98.33;100254.73;1701310;83;21122;-77
2021/12/30 07:34:45;;;;;;;18.60;13.90;;;;;;;3.47;98.42;100253.44;1701348;83;21054;-78
2021/12/30 07:37:14;;;;;;;21.00;13.67;;;;;;;3.50;98.46;100256.43;1699172;83;21050;-78
2021/12/30 07:39:43;;;;;;;25.83;15.97;;;;;;;3.52;98.41;100261.14;1700562;83;21039;-78
2021/12/30 07:42:12;;;;;;;23.97;15.83;;;;;;;3.53;98.41;100261.13;1683598;82;21021;-78
2021/12/30 07:44:39;;;;;;;29.00;17.80;;;;;;;3.57;98.53;100260.66;1667678;84;21043;-79
2021/12/30 07:47:07;;;;;;;38.07;22.73;;;;;;;3.57;98.49;100261.55;1702420;83;21086;-78
2021/12/30 07:49:36;;;;;;;46.40;27.50;;;;;;;3.58;98.33;100254.63;1699274;83;21158;-77
2021/12/30 07:52:05;;;;;;;39.67;24.83;;;;;;;3.57;98.29;100257.66;1698825;83;21531;-78
2021/12/30 07:54:33;;;;;;;39.70;24.00;;;;;;;3.57;98.28;100259.36;1697248;83;21512;-77
2021/12/30 07:57:00;;;;;;;46.37;24.20;;;;;;;3.58;98.33;100265.84;1698996;83;21055;-77
2021/12/30 07:59:27;;;;;;;42.47;24.40;;;;;;;3.58;98.30;100271.47;1699889;83;21122;-77
2021/12/30 08:01:54;;;;;;;36.30;22.20;;;;;;;3.58;98.31;100268.88;1698478;83;21937;-77
2021/12/30 08:04:21;;;;;;;28.50;18.60;;;;;;;3.60;98.43;100263.21;1692524;83;21091;-77
2021/12/30 08:06:48;;;;;;;24.20;16.07;;;;;;;3.61;98.45;100266.69;1702874;83;21007;-78
2021/12/30 08:09:15;;;;;;;25.40;16.50;;;;;;;3.62;98.58;100269.25;1698241;83;21131;-79
2021/12/30 08:11:42;;;;;;;30.20;18.17;;;;;;;3.66;98.66;100273.95;1698807;84;21417;-78
2021/12/30 08:14:09;;;;;;;26.53;16.53;;;;;;;3.70;98.70;100275.66;1674323;84;21122;-78
2021/12/30 08:16:36;;;;;;;28.40;17.57;;;;;;;3.72;98.79;100274.77;1670069;85;20900;-78
2021/12/30 08:19:03;;;;;;;23.73;15.83;;;;;;;3.77;98.97;100278.16;1673427;85;21049;-78
2021/12/30 08:21:31;;;;;;;21.07;13.97;;;;;;;3.83;99.12;100275.09;1672713;85;21056;-78
2021/12/30 08:23:57;;;;;;;25.67;15.83;;;;;;;3.89;99.36;100286.68;1673182;85;21727;-78
2021/12/30 08:26:25;;;;;;;21.13;14.23;;;;;;;3.96;99.59;100296.09;1666209;85;21205;-79
2021/12/30 08:28:53;;;;;;;23.20;15.03;;;;;;;4.05;99.78;100295.11;1670432;85;21070;-78
2021/12/30 08:31:21;;;;;;;29.47;17.10;;;;;;;4.12;99.88;100291.58;1670032;85;21142;-76
2021/12/30 08:33:48;;;;;;;29.83;16.70;;;;;;;4.17;99.87;100284.16;1670791;85;21447;-77
2021/12/30 08:36:15;;;;;;;26.47;17.37;;;;;;;4.29;100.00;100277.95;1673221;85;21598;-75
2021/12/30 08:38:42;;;;;;;25.67;16.93;;;;;;;4.44;100.00;100292.47;1669199;85;21485;-76
2021/12/30 08:41:09;;;;;;;32.63;19.80;;;;;;;4.53;100.00;100293.63;1673408;85;21011;-79
2021/12/30 08:43:36;;;;;;;32.87;18.03;;;;;;;4.62;100.00;100289.59;1672430;85;21004;-79
2021/12/30 08:46:04;;;;;;;32.83;19.33;;;;;;;4.76;100.00;100292.44;1669059;84;21023;-77
2021/12/30 08:48:31;;;;;;;33.60;17.20;;;;;;;4.88;100.00;100289.67;1672046;85;21254;-77
2021/12/30 08:50:58;;;;;;;26.67;16.00;;;;;;;5.02;100.00;100290.75;1672483;84;22437;-77
2021/12/30 08:53:29;;;;;;;23.43;12.97;;;;;;;5.27;100.00;100290.76;1668114;85;21629;-76
2021/12/30 08:55:56;;;;;;;26.13;15.30;;;;;;;5.57;100.00;100291.08;1673362;85;21587;-77
2021/12/30 08:58:24;;;;;;;24.27;14.60;;;;;;;5.85;100.00;100299.66;1671928;85;21593;-77
2021/12/30 09:00:51;;;;;;;26.63;14.40;;;;;;;6.10;100.00;100296.20;1674992;85;21205;-77
2021/12/30 09:03:18;;;;;;;23.47;13.93;;;;;;;6.31;100.00;100293.58;1676567;85;21132;-77
2021/12/30 09:05:45;;;;;;;23.80;12.97;;;;;;;6.46;100.00;100295.87;1646478;85;20987;-77
2021/12/30 09:08:12;;;;;;;22.30;14.17;;;;;;;6.59;100.00;100294.68;1673163;85;22322;-76
2021/12/30 09:10:45;;;;;;;20.70;12.63;;;;;;;6.72;100.00;100301.78;1675895;84;21686;-78
2021/12/30 09:13:09;;;;;;;25.47;13.93;;;;;;;6.82;100.00;100300.69;1681922;84;21448;-76
2021/12/30 09:15:37;;;;;;;21.17;12.80;;;;;;;6.93;100.00;100301.30;1696664;84;21140;-77
2021/12/30 09:18:05;;;;;;;24.00;13.13;;;;;;;7.02;100.00;100305.88;1697961;84;21055;-77
2021/12/30 09:20:35;;;;;;;27.30;12.80;;;;;;;7.10;100.00;100300.03;1698145;84;21527;-77
2021/12/30 09:23:09;;;;;;;21.25;12.50;;;;;;;7.19;100.00;100307.63;1699699;83;21031;-76
2021/12/30 09:25:39;;;;;;;23.17;12.23;;;;;;;7.30;100.00;100307.36;1692725;84;21029;-75
2021/12/30 09:28:11;;;;;;;22.50;13.13;;;;;;;7.37;100.00;100312.39;1697177;84;21862;-75
2021/12/30 09:30:36;;;;;;;22.58;12.20;;;;;;;7.43;100.00;100311.37;1697606;83;20901;-76
2021/12/30 09:33:04;;;;;;;20.13;11.83;;;;;;;7.50;100.00;100318.58;1697464;83;21532;-77
2021/12/30 09:35:33;;;;;;;20.67;10.90;;;;;;;7.56;100.00;100310.14;1668680;85;21050;-76
2021/12/30 09:37:59;;;;;;;18.93;9.93;;;;;;;7.62;100.00;100315.67;1688694;85;21111;-77
2021/12/30 09:40:28;;;;;;;18.80;8.40;;;;;;;7.69;100.00;100305.47;1699298;84;21246;-78
2021/12/30 09:43:02;;;;;;;20.17;9.70;;;;;;;7.76;100.00;100311.36;1698130;84;21055;-78
2021/12/30 09:45:33;;;;;;;19.43;8.87;;;;;;;7.83;100.00;100301.18;1697739;84;21670;-76
2021/12/30 09:48:04;;;;;;;18.40;8.60;;;;;;;7.90;100.00;100315.78;1698782;83;21075;-77
2021/12/30 09:50:43;;;;;;;17.70;8.00;;;;;;;7.95;100.00;100310.42;1698989;84;21083;-77
2021/12/30 09:53:10;;;;;;;21.17;7.27;;;;;;;8.02;100.00;100302.38;1698807;84;21907;-77
2021/12/30 09:55:43;;;;;;;16.20;7.80;;;;;;;8.08;100.00;100301.81;1698436;84;20955;-77
2021/12/30 09:58:11;;;;;;;16.23;6.97;;;;;;;8.12;100.00;100304.30;1705114;83;21021;-77
2021/12/30 10:00:39;;;;;;;11.50;6.03;;;;;;;8.16;100.00;100301.14;1669401;84;21031;-77
2021/12/30 10:03:07;;;;;;;14.07;7.80;;;;;;;8.24;100.00;100312.22;1709728;83;21007;-78
2021/12/30 10:05:38;;;;;;;17.10;7.40;;;;;;;8.26;100.00;100315.20;1696396;84;21178;-79
2021/12/30 10:08:17;;;;;;;17.50;8.00;;;;;;;8.30;100.00;100313.80;1683435;84;21092;-77
2021/12/30 10:10:48;;;;;;;12.90;6.83;;;;;;;8.32;100.00;100315.92;1692901;84;21019;-77
2021/12/30 10:13:31;;;;;;;16.33;6.37;;;;;;;8.34;100.00;100308.88;1687537;84;21548;-78
2021/12/30 10:16:13;;;;;;;16.87;7.37;;;;;;;8.34;100.00;100303.66;1695642;83;21023;-76
2021/12/30 10:19:00;;;;;;;14.13;7.37;;;;;;;8.34;100.00;100311.06;1697597;83;21124;-81
2021/12/30 10:21:41;;;;;;;15.67;7.67;;;;;;;8.33;100.00;100310.64;1700280;83;21505;-79
2021/12/30 10:24:11;;;;;;;15.17;6.40;;;;;;;8.34;100.00;100308.88;1702350;83;21469;-77
2021/12/30 10:26:51;;;;;;;;;;;;;;;8.33;100.00;100310.64;1701392;83;21011;-78
2021/12/30 10:29:18;;;;;;;14.23;6.43;;;;;;;8.35;100.00;100317.14;1716352;83;20567;-78
2021/12/30 10:31:47;;;;;;;16.97;6.60;;;;;;;8.34;100.00;100322.81;1718673;83;21088;-77
2021/12/30 10:34:16;;;;;;;15.97;7.10;;;;;;;8.38;100.00;100323.58;1718798;83;21035;-78
2021/12/30 10:36:46;;;;;;;14.10;6.67;;;;;;;8.41;100.00;100323.52;1719244;83;21611;-77
2021/12/30 10:39:34;;;;;;;15.17;6.27;;;;;;;8.42;100.00;100330.44;1719178;83;21468;-77
2021/12/30 10:42:15;;;;;;;12.87;6.60;;;;;;;8.42;100.00;100322.60;1719259;83;21063;-77
2021/12/30 10:44:57;;;;;;;11.70;5.97;;;;;;;8.45;100.00;100316.86;1719119;83;21197;-77
2021/12/30 10:47:29;;;;;;;15.27;6.03;;;;;;;8.45;100.00;100320.78;1719248;83;21603;-77
2021/12/30 10:50:12;;;;;;;14.23;6.03;;;;;;;8.44;100.00;100333.41;1718466;83;21068;-76
2021/12/30 10:52:49;;;;;;;16.77;6.10;;;;;;;8.49;100.00;100328.91;1718790;83;21055;-77
2021/12/30 10:55:17;;;;;;;14.10;6.30;;;;;;;8.52;100.00;100327.12;1719023;83;21500;-76
2021/12/30 10:57:44;;;;;;;17.37;7.03;;;;;;;8.54;100.00;100324.87;1717121;83;21098;-77
2021/12/30 11:00:27;;;;;;;12.50;6.90;;;;;;;8.60;100.00;100327.75;1698890;83;21051;-77
2021/12/30 11:02:54;;;;;;;17.77;6.63;;;;;;;8.62;100.00;100330.72;1699300;84;21082;-77
2021/12/30 11:05:22;;;;;;;13.40;6.53;;;;;;;8.63;100.00;100335.03;1698993;84;21042;-76
2021/12/30 11:07:52;;;;;;;19.03;7.97;;;;;;;8.64;100.00;100331.97;1699309;84;21070;-76
2021/12/30 11:10:32;;;;;;;11.97;5.87;;;;;;;8.68;100.00;100337.52;1698986;84;21142;-77
2021/12/30 11:13:14;;;;;;;12.05;5.28;;;;;;;8.70;100.00;100333.08;1699202;84;21067;-77
2021/12/30 11:15:42;;;;;;;13.17;5.17;;;;;;;8.76;100.00;100321.58;1698247;84;21064;-78
2021/12/30 11:18:12;;;;;;;12.90;4.93;;;;;;;8.82;100.00;100318.80;1731389;82;21056;-77
2021/12/30 11:20:43;;;;;;;11.22;4.92;;;;;;;8.88;100.00;100315.99;1732788;81;21567;-84
2021/12/30 11:23:12;;;;;;;9.17;5.37;;;;;;;8.91;100.00;100318.51;1691416;83;21213;-74
2021/12/30 11:25:40;;;;;;;15.43;6.57;;;;;;;8.98;100.00;100317.42;1669964;84;21618;-76